Historyczne dane pomiarowe

Dodano dane terminowe – wersja testowa.

Dane z okresu 1951-2019

Wersja bazy: 1.34 [2019-03-16, lista zmian], aktualizacja planowana na 2019-04-15

Dane meteo z obszaru Polski uzyskane na podstawie danych udostępnionych przez Instytut Meteorologii i Gospodarki Wodnej – Państwowy Instytut Badawczy.

 

Wybierz Datę:    

       

TemperaturaWilgotnośćWiatrCiśnienieOpadyŚniegCzas trwania zjawisk
 Stacja t tx tn tng RH VA  wxwx mslp ppp RRR   cm mm wxwxwxwxwxwxwx
1961-08-14 12.6 17.3 8.3- 86.8- 6.0 3.0---- 0.3------------
1961-08-13 12.3 16.6 9.5- 83.0- 4.0 5.0---- 0.0------------
1961-08-12 14.3 18.5 11.1- 88.8- 5.7 1.3---- 0.8------------
1961-08-11 16.5 18.5 12.0- 96.0- 7.3 0.3---- 0.0------------
1961-08-10 18.0 23.7 11.8- 82.5- 7.0 3.7---- 3.4------------
1961-08-09 16.7 21.9 13.3- 78.5- 5.3 2.7---- 0.0------------
1961-08-08 15.9 20.0 7.5- 74.5- 5.0 4.0---- 0.6------------
1961-08-07 13.7 17.6 11.6- 96.3- 6.3 2.7---- 3.9------------
1961-08-06 17.5 22.4 15.1- 85.0- 5.3 4.7---- 0.7------------
1961-08-05 15.8 18.7 12.9- 82.0- 6.3 5.3---- 0.8------------
1961-08-04 13.7 15.0 8.8- 93.3- 8.0 6.0---- 3.9------------
1961-08-03 12.0 16.6 10.5- 96.8- 5.3 2.0---- 9.0------------
1961-08-02 15.3 19.0 10.2- 90.8- 7.0 3.3---- 0.2------------
1961-08-01 13.4 16.4 12.8- 96.8- 6.3 4.7---- 7.1------------
1961-07-31 14.3 15.3 13.4- 97.5- 7.7 7.0---- 50.7------------
1961-07-30 14.6 16.2 12.1- 91.0- 7.3 2.0---- 0.8------------
1961-07-29 13.1 17.0 10.8- 89.0- 7.0 4.3---- 0.5------------
1961-07-28 12.5 14.8 11.5- 92.0- 7.3 3.3---- 0.9------------
1961-07-27 14.7 18.5 13.4- 88.8- 7.3 4.7---- 1.6------------
1961-07-26 16.2 21.9 13.4- 89.3- 7.7 4.7---- 3.0------------
1961-07-25 14.5 17.0 11.5- 77.8- 7.0 4.7---- 0.6------------
1961-07-24 13.0 16.5 11.8- 89.3- 7.0 4.7---- 0.0------------
1961-07-23 13.3 16.5 12.4- 93.3- 7.3 4.7---- 5.8------------
1961-07-22 14.7 16.8 10.3- 89.3- 7.7 5.3---- 0.6------------
1961-07-21 14.7 17.6 13.3- 89.5- 5.7 4.7---- 1.3------------
1961-07-20 15.8 19.8 10.3- 79.0- 7.0 2.7---- 3.0------------
1961-07-19 15.8 19.6 11.7- 84.8- 6.7 3.7---- 3.7------------
1961-07-18 13.8 18.4 10.6- 93.3- 7.3 1.7---- 0.1------------
1961-07-17 14.4 18.4 9.4- 91.8- 7.0 1.3---- 3.1------------
1961-07-16 15.1 17.6 13.5- 90.0- 8.0 4.3---- 2.9------------
1961-07-15 16.4 19.7 11.8- 69.0- 2.7 2.3---- 1.7------------
1961-07-14 13.1 16.1 12.3- 94.0- 6.0 6.7---- 0.3------------
1961-07-13 19.3 27.5 15.7- 81.5- 6.3 6.3---- 10.7------------
1961-07-12 17.0 19.8 13.8- 84.5- 5.7 3.3---- 0.0------------
1961-07-11 15.2 18.2 8.9- 82.8- 6.7 3.0---- 4.2------------
1961-07-10 12.4 16.6 10.6- 89.0- 6.0 5.7---- 3.3------------
1961-07-09 13.2 16.2 11.4- 93.3- 7.3 2.3---- 17.4------------
1961-07-08 14.7 17.8 9.0- 93.5- 7.7 3.7---- 6.9------------
1961-07-07 11.6 15.5 9.9- 89.3- 5.3 5.0---- 1.2------------
1961-07-06 13.0 15.7 7.6- 81.8- 6.7 5.3---- 12.5------------
1961-07-05 12.1 16.2 10.3- 79.8- 5.3 7.7---- 1.4------------
1961-07-04 15.2 19.6 9.7- 79.8- 5.7 7.3---- 6.7------------
1961-07-03 20.9 31.4 14.8- 63.0- 5.3 4.7---- 1.3------------
1961-07-02 20.5 28.4 7.8- 70.5- 0.0 1.0---- 0.0------------
1961-07-01 15.2 21.9 6.0- 79.0- 0.3 1.3---- 0.0------------
1961-06-30 14.8 19.6 8.8- 79.0- 0.7 3.7---- 0.0------------
1961-06-29 16.2 19.4 13.7- 72.5- 3.3 4.7---- 0.0------------
1961-06-28 14.4 17.7 12.5- 72.8- 3.3 8.0---- 1.2------------
1961-06-27 20.6 26.7 17.4- 75.5- 7.0 6.0---- 4.6------------
1961-06-26 20.8 24.3 10.0- 61.8- 1.3 3.0---- 0.0------------
1961-06-25 20.1 26.4 12.7- 58.8- 6.3 6.3---- 0.0------------
1961-06-24 16.2 22.2 13.2- 72.3- 5.3 3.7---- 0.0------------
1961-06-23 15.7 19.9 8.6- 75.0- 5.3 4.7---- 0.0------------
1961-06-22 15.1 21.0 6.1- 65.8- 4.3 3.3---- 0.0------------
1961-06-21 12.3 17.4 9.7- 79.0- 4.3 3.3---- 0.0------------
1961-06-20 13.2 17.3 11.2- 66.8- 4.0 4.3---- 0.0------------
1961-06-19 14.4 17.7 10.8- 65.8- 2.3 7.0---- 0.0------------
1961-06-18 18.2 24.2 15.4- 75.8- 5.3 5.7---- 3.3------------
1961-06-17 17.2 21.3 9.5- 81.3- 3.3 4.0---- 0.0------------
1961-06-16 13.4 16.5 12.6- 85.0- 5.0 7.0---- 0.0------------
358.5 ms

 

Źródłem pochodzenia danych jest Instytut Meteorologii i Gospodarki Wodnej – Państwowy Instytut Badawczy. Dane Instytutu Meteorologii i Gospodarki Wodnej – Państwowego Instytutu Badawczego zostały przetworzone.

Dane źródłowe można odnaleźć na stronie https://dane.imgw.pl